Tainan Airport
RCNN : now visible

Airfield :











YOU CAN JOIN US ON...

 
LOGIN :

Register | Disclaimer

   EN    FR    IT 

 









Legend :    VFR   Marginal VFR   IFR   Intensive IFR   Very Intensive IFR
Visi :
Ceiling :
>= 8 km
>= 3000ft
5 to 8 km
1000 to 3000 ft
1500m to 5 km
500 to 1000 ft
800 to 1500m
200 to 500 ft
< 800m
< 200 ft
Symbols :   Thunderstorms  Fog  Heavy snow  Heavy precipitations  Wind > 20 kt







- Airport Elevation : 63 ft
- IATA code : TNN


RCNN - Tainan

CURRENT METAR :
  • 211600Z 11002KT 8000 FEW012 SCT040 BKN060 22/21 Q1010 RMK A2983

EXPIRED METARs :
  • 211500Z 09003KT 8000 FEW012 SCT040 BKN060 22/21 Q1010 RMK A2985
  • 211400Z 08002KT 8000 FEW012 SCT025 BKN050 22/21 Q1011 RMK A2986
  • 211330Z 00000KT 8000 FEW012 SCT025 BKN050 22/21 Q1011 RMK A2986

TAF TAF RCNN
Valid from the 21 at 12:00 until the 22 at 12:00 UTC


211100Z 2112/2212 18006KT 9999 FEW012 BKN060 TX30/2206Z TN22/2120Z
BECMG 2115/2118 12004KT FEW012 BKN060
TEMPO 2122/2202 8000 FEW012 BKN050
BECMG 2204/2207 18006KT
RCAA FIR / Asia



MET'MAP, your aeronautical weather chart ! - Copyright ORBIFLY December 2007 - Disclaimer

ORBIFLY MET'MAP TEAM :

Programming & Development : Alexandra Zaïnal
Concept & Development : Baudouin d'Aumeries
Co-Development & Prog : Marc-Olivier Méhu
Technical & hardware support : Manuel Goepfert

Contact : metmap@orbifly.com




SOURCES & CREDITS :

   NOAA       Earth
Advisory